Time;durP1;ratioP1;P1;durP2;ratioP2;P2;SDS_P1;SDS_P2;PMS_P1;PMS_P2;Temp;Humidity;BMP_temperature;BMP_pressure;BME280_temperature;BME280_humidity;BME280_pressure;Samples;Min_cycle;Max_cycle;Signal;HPM_P1;HPM_P2
2022/06/24 00:01:30;;;;;;;4.38;1.95;;;22.30;58.90;;;;;;4230462;28;20093;-84
2022/06/24 00:03:31;;;;;;;2.95;1.55;;;22.30;59.20;;;;;;4223240;28;20043;-84
2022/06/24 00:05:34;;;;;;;3.17;1.67;;;22.30;59.20;;;;;;4213585;28;20121;-83
2022/06/24 00:07:48;;;;;;;3.53;1.77;;;22.20;59.30;;;;;;4213080;28;20127;-84
2022/06/24 00:09:50;;;;;;;2.30;1.50;;;22.20;59.70;;;;;;4213727;28;20476;-84
2022/06/24 00:12:04;;;;;;;3.67;1.88;;;22.20;59.70;;;;;;4213498;28;20577;-83
2022/06/24 00:14:08;;;;;;;3.72;1.73;;;22.20;60.40;;;;;;4213483;28;20047;-83
2022/06/24 00:16:09;;;;;;;3.80;1.80;;;22.20;60.00;;;;;;4213403;28;20048;-83
2022/06/24 00:18:18;;;;;;;2.88;1.73;;;22.20;60.00;;;;;;4213537;28;20046;-85
2022/06/24 00:20:20;;;;;;;4.55;1.88;;;22.20;59.90;;;;;;4219986;28;20094;-84
2022/06/24 00:22:23;;;;;;;3.25;1.40;;;22.20;60.00;;;;;;4229800;28;20116;-84
2022/06/24 00:24:24;;;;;;;2.65;1.60;;;22.10;59.80;;;;;;4212578;28;20056;-85
2022/06/24 00:26:42;;;;;;;3.70;1.55;;;22.10;60.10;;;;;;4233396;28;20066;-84
2022/06/24 00:28:44;;;;;;;2.58;1.50;;;22.00;62.40;;;;;;4233599;28;20051;-84
2022/06/24 00:30:53;;;;;;;3.60;1.98;;;21.90;61.70;;;;;;4231726;28;20054;-84
2022/06/24 00:33:15;;;;;;;2.22;1.60;;;21.90;62.20;;;;;;4232011;28;20035;-84
2022/06/24 00:35:18;;;;;;;2.00;1.35;;;21.80;62.60;;;;;;4233141;28;20051;-84
2022/06/24 00:37:28;;;;;;;4.57;1.60;;;21.70;62.60;;;;;;4219448;28;20441;-84
2022/06/24 00:39:34;;;;;;;2.00;1.60;;;21.60;63.40;;;;;;4216243;28;20048;-84
2022/06/24 00:41:36;;;;;;;3.15;1.67;;;21.60;63.90;;;;;;4215005;28;20046;-84
2022/06/24 00:43:39;;;;;;;3.20;1.92;;;21.50;63.90;;;;;;4216323;28;20044;-83
2022/06/24 00:45:45;;;;;;;6.25;1.90;;;21.50;64.10;;;;;;4214327;28;20047;-83
2022/06/24 00:47:48;;;;;;;3.42;2.05;;;21.40;64.30;;;;;;4214982;28;20051;-83
2022/06/24 00:49:51;;;;;;;3.83;1.67;;;21.40;64.70;;;;;;4216405;28;20408;-84
2022/06/24 00:51:53;;;;;;;2.65;1.98;;;21.30;64.80;;;;;;4216273;28;20400;-84
2022/06/24 00:53:55;;;;;;;2.67;1.90;;;21.30;64.60;;;;;;4231548;28;20043;-83
2022/06/24 00:55:56;;;;;;;2.53;1.60;;;21.20;64.50;;;;;;4232880;27;20071;-83
2022/06/24 00:57:59;;;;;;;3.45;1.95;;;21.10;64.60;;;;;;4226591;28;20032;-83
2022/06/24 01:00:01;;;;;;;4.53;2.45;;;21.00;64.90;;;;;;4203368;28;20048;-83
2022/06/24 01:02:06;;;;;;;1.83;1.73;;;20.90;65.20;;;;;;4216158;28;20506;-83
2022/06/24 01:04:10;;;;;;;5.05;2.80;;;20.80;66.00;;;;;;4227668;28;20059;-84
2022/06/24 01:06:11;;;;;;;2.15;1.95;;;20.80;66.20;;;;;;4232863;28;20042;-83
2022/06/24 01:08:13;;;;;;;2.20;1.65;;;20.80;66.40;;;;;;4231733;28;20043;-84
2022/06/24 01:10:14;;;;;;;5.07;2.20;;;20.80;66.50;;;;;;4226422;28;20032;-83
2022/06/24 01:12:15;;;;;;;3.35;1.75;;;20.80;66.30;;;;;;4213985;28;20066;-84
2022/06/24 01:14:16;;;;;;;3.08;2.45;;;20.80;66.30;;;;;;4216024;28;20453;-83
2022/06/24 01:16:16;;;;;;;2.88;1.67;;;20.60;66.70;;;;;;4227336;28;20042;-84
2022/06/24 01:18:17;;;;;;;3.60;2.00;;;20.70;67.20;;;;;;4233098;28;20044;-83
2022/06/24 01:20:18;;;;;;;4.00;2.25;;;20.70;67.60;;;;;;4232017;28;20052;-83
2022/06/24 01:22:21;;;;;;;3.10;2.08;;;20.70;67.90;;;;;;4232728;28;20077;-83
2022/06/24 01:24:24;;;;;;;3.92;2.05;;;20.70;67.80;;;;;;4232690;28;20040;-84
2022/06/24 01:26:25;;;;;;;4.18;2.40;;;20.60;68.00;;;;;;4232560;28;20505;-84
2022/06/24 01:28:26;;;;;;;3.30;2.80;;;20.50;68.20;;;;;;4231522;27;20052;-84
2022/06/24 01:30:28;;;;;;;4.13;2.13;;;20.50;68.50;;;;;;4232052;28;20039;-83
2022/06/24 01:32:28;;;;;;;5.18;2.38;;;20.40;69.00;;;;;;4214272;28;20092;-84
2022/06/24 01:34:29;;;;;;;9.82;3.35;;;20.40;69.20;;;;;;4232463;28;20104;-83
2022/06/24 01:36:30;;;;;;;2.83;2.33;;;20.30;69.30;;;;;;4231990;28;20042;-84
2022/06/24 01:38:31;;;;;;;4.10;2.13;;;20.30;69.50;;;;;;4232153;28;20044;-84
2022/06/24 01:40:31;;;;;;;3.45;2.72;;;20.30;70.10;;;;;;4232157;28;20051;-84
2022/06/24 01:42:32;;;;;;;4.80;2.80;;;20.30;70.60;;;;;;4232292;27;20039;-84
2022/06/24 01:44:34;;;;;;;5.35;2.72;;;20.30;70.70;;;;;;4226730;28;20044;-83
2022/06/24 01:46:35;;;;;;;6.30;2.47;;;20.30;70.70;;;;;;4215332;28;20450;-84
2022/06/24 01:48:36;;;;;;;3.75;2.25;;;20.20;70.80;;;;;;4215342;28;20446;-83
2022/06/24 01:50:37;;;;;;;3.53;2.40;;;20.10;70.90;;;;;;4213715;28;20056;-84
2022/06/24 01:52:38;;;;;;;3.60;2.60;;;20.10;71.30;;;;;;4215430;28;20044;-84
2022/06/24 01:54:39;;;;;;;3.97;2.97;;;20.10;71.60;;;;;;4215361;28;20189;-84
2022/06/24 01:56:40;;;;;;;4.90;2.83;;;20.00;71.70;;;;;;4213354;28;20147;-83
2022/06/24 01:58:40;;;;;;;6.05;2.38;;;20.00;72.10;;;;;;4215493;28;20047;-83
2022/06/24 02:00:41;;;;;;;5.95;2.78;;;20.00;72.40;;;;;;4215217;28;20055;-84
2022/06/24 02:02:42;;;;;;;6.90;2.70;;;20.00;72.60;;;;;;4223544;28;20115;-84
2022/06/24 02:04:47;;;;;;;5.20;2.60;;;19.90;72.70;;;;;;4231942;28;20402;-84
2022/06/24 02:06:48;;;;;;;4.65;2.53;;;19.90;72.90;;;;;;4231315;28;20044;-84
2022/06/24 02:08:49;;;;;;;8.55;2.75;;;19.80;73.50;;;;;;4213550;28;20056;-84
2022/06/24 02:13:28;;;;;;;4.20;2.42;;;19.80;72.50;;;;;;4231707;28;20054;-84
2022/06/24 02:15:29;;;;;;;3.70;2.40;;;19.80;72.00;;;;;;4230473;28;20130;-84
2022/06/24 02:17:30;;;;;;;5.05;2.78;;;19.70;72.00;;;;;;4229991;28;20040;-84
2022/06/24 02:19:32;;;;;;;6.45;2.97;;;19.70;72.10;;;;;;4229831;28;20054;-84
2022/06/24 02:21:35;;;;;;;3.60;2.30;;;19.70;72.50;;;;;;4214822;28;20051;-84
2022/06/24 02:23:35;;;;;;;3.05;2.28;;;19.70;72.90;;;;;;4213651;28;20044;-84
2022/06/24 02:25:36;;;;;;;4.10;2.60;;;19.70;72.90;;;;;;4214149;28;20055;-84
2022/06/24 02:27:37;;;;;;;3.45;2.53;;;19.70;73.00;;;;;;4196811;28;20052;-84
2022/06/24 02:29:38;;;;;;;3.72;2.70;;;19.70;72.50;;;;;;4214544;28;20101;-84
2022/06/24 02:31:41;;;;;;;4.75;2.35;;;19.70;72.80;;;;;;4214700;28;20399;-84
2022/06/24 02:33:42;;;;;;;3.35;2.42;;;19.70;73.30;;;;;;4214395;28;20055;-84
2022/06/24 02:35:46;;;;;;;3.80;2.50;;;19.70;74.00;;;;;;4214113;28;20052;-84
2022/06/24 02:37:47;;;;;;;6.90;2.58;;;19.70;73.40;;;;;;4228129;28;20032;-84
2022/06/24 02:39:48;;;;;;;5.90;3.53;;;19.70;73.10;;;;;;4231441;28;20389;-84
2022/06/24 02:41:48;;;;;;;3.75;2.55;;;19.60;73.40;;;;;;4231101;28;20043;-84
2022/06/24 02:43:49;;;;;;;3.53;2.80;;;19.60;73.80;;;;;;4231286;28;20483;-84
2022/06/24 02:45:53;;;;;;;3.85;2.75;;;19.60;73.60;;;;;;4231133;28;20127;-84
2022/06/24 02:47:53;;;;;;;5.13;2.83;;;19.60;73.90;;;;;;4229674;28;20046;-84
2022/06/24 02:49:54;;;;;;;4.65;2.63;;;19.60;74.20;;;;;;4231089;28;20534;-84
2022/06/24 02:51:55;;;;;;;6.00;3.08;;;19.60;74.60;;;;;;4229731;28;20090;-84
2022/06/24 02:53:56;;;;;;;5.45;3.08;;;19.60;74.80;;;;;;4225402;28;20040;-84
2022/06/24 02:56:01;;;;;;;4.90;3.22;;;19.60;74.80;;;;;;4212839;28;20125;-84
2022/06/24 02:58:03;;;;;;;6.20;2.80;;;19.50;74.70;;;;;;4211964;28;20492;-84
2022/06/24 03:00:07;;;;;;;4.30;2.88;;;19.50;74.80;;;;;;4214107;28;20044;-84
2022/06/24 03:02:09;;;;;;;3.83;2.90;;;19.50;74.70;;;;;;4213881;28;20087;-84
2022/06/24 03:04:09;;;;;;;3.55;2.97;;;19.50;74.70;;;;;;4213081;28;20044;-84
2022/06/24 03:06:10;;;;;;;4.05;3.08;;;19.40;74.70;;;;;;4214011;28;20538;-84
2022/06/24 03:08:13;;;;;;;4.28;2.72;;;19.50;74.80;;;;;;4213873;28;20080;-84
2022/06/24 03:10:14;;;;;;;8.43;2.60;;;19.50;74.80;;;;;;4212234;28;20050;-84
2022/06/24 03:12:15;;;;;;;4.68;3.17;;;19.50;74.90;;;;;;4212842;28;20555;-84
2022/06/24 03:14:16;;;;;;;8.50;2.67;;;19.50;74.90;;;;;;4213610;28;20056;-84
2022/06/24 03:16:17;;;;;;;3.83;2.60;;;19.40;75.00;;;;;;4229795;28;20047;-83
2022/06/24 03:18:18;;;;;;;7.82;2.63;;;19.40;75.30;;;;;;4228994;28;20119;-84
2022/06/24 03:20:19;;;;;;;4.82;2.88;;;19.40;75.40;;;;;;4227830;28;20040;-84
2022/06/24 03:22:20;;;;;;;4.55;2.63;;;19.40;75.50;;;;;;4226760;28;20043;-84
2022/06/24 03:24:21;;;;;;;7.63;2.83;;;19.40;75.60;;;;;;4227527;28;20040;-84
2022/06/24 03:26:21;;;;;;;5.07;2.58;;;19.30;75.30;;;;;;4219167;28;20048;-84
2022/06/24 03:28:22;;;;;;;3.05;2.63;;;19.40;75.50;;;;;;4215417;28;20047;-84
2022/06/24 03:30:23;;;;;;;5.43;2.60;;;19.40;75.80;;;;;;4224432;28;20052;-83
2022/06/24 03:32:24;;;;;;;4.97;2.90;;;19.40;75.80;;;;;;4218567;28;20518;-84
2022/06/24 03:34:25;;;;;;;4.53;2.47;;;19.30;75.80;;;;;;4213730;28;20044;-84
2022/06/24 03:36:25;;;;;;;5.32;2.70;;;19.40;76.00;;;;;;4212724;28;20082;-84
2022/06/24 03:38:26;;;;;;;4.63;2.85;;;19.40;75.90;;;;;;4213184;28;20544;-85
2022/06/24 03:40:27;;;;;;;8.35;3.55;;;19.40;75.80;;;;;;4213027;28;20126;-84
2022/06/24 03:42:31;;;;;;;3.95;2.42;;;19.10;75.70;;;;;;4220980;28;20502;-83
2022/06/24 03:44:34;;;;;;;7.22;2.72;;;19.40;76.10;;;;;;4230225;28;20039;-84
2022/06/24 03:46:35;;;;;;;5.78;3.00;;;19.40;76.00;;;;;;4222826;28;20040;-84
2022/06/24 03:48:36;;;;;;;5.63;2.70;;;19.50;76.00;;;;;;4212359;28;20055;-84
2022/06/24 03:50:36;;;;;;;5.93;3.03;;;19.50;76.20;;;;;;4213839;28;20048;-84
2022/06/24 03:52:37;;;;;;;6.60;2.45;;;19.60;76.00;;;;;;4213326;28;20040;-84
2022/06/24 03:54:38;;;;;;;8.30;3.13;;;19.60;76.20;;;;;;4213960;28;20094;-84
2022/06/24 03:56:39;;;;;;;4.80;2.95;;;19.40;76.10;;;;;;4213891;28;20519;-84
2022/06/24 03:58:40;;;;;;;6.05;2.70;;;19.60;76.70;;;;;;4214870;28;20055;-84
2022/06/24 04:00:41;;;;;;;3.90;2.38;;;19.60;76.90;;;;;;4198978;28;20056;-83
2022/06/24 04:02:41;;;;;;;4.80;2.70;;;19.60;77.40;;;;;;4216843;28;20044;-84
2022/06/24 04:04:42;;;;;;;2.85;2.50;;;19.50;77.20;;;;;;4215554;28;20194;-84
2022/06/24 04:06:43;;;;;;;4.18;2.75;;;19.50;77.20;;;;;;4216917;28;20392;-83
2022/06/24 04:08:44;;;;;;;3.67;2.85;;;19.50;78.30;;;;;;4198656;28;20048;-83
2022/06/24 04:10:44;;;;;;;6.28;3.25;;;19.50;78.50;;;;;;4215670;28;20048;-84
2022/06/24 04:12:45;;;;;;;4.28;2.75;;;19.50;78.30;;;;;;4216816;28;20463;-84
2022/06/24 04:17:05;;;;;;;3.72;2.88;;;19.50;78.40;;;;;;4216331;28;20052;-84
2022/06/24 04:19:06;;;;;;;4.72;2.83;;;19.40;78.70;;;;;;4216864;28;20115;-84
2022/06/24 04:21:11;;;;;;;4.85;2.90;;;19.40;78.90;;;;;;4216775;28;20515;-85
2022/06/24 04:23:12;;;;;;;6.45;3.33;;;19.40;79.10;;;;;;4215164;28;20489;-84
2022/06/24 04:25:12;;;;;;;3.83;2.58;;;19.50;79.40;;;;;;4215286;28;20131;-84
2022/06/24 04:27:14;;;;;;;6.20;2.92;;;19.50;79.60;;;;;;4216254;28;20044;-84
2022/06/24 04:29:14;;;;;;;5.65;2.55;;;19.60;79.70;;;;;;4215119;28;20080;-84
2022/06/24 04:31:15;;;;;;;4.18;2.90;;;19.60;79.40;;;;;;4216343;28;20040;-84
2022/06/24 04:33:16;;;;;;;6.55;2.75;;;19.60;79.40;;;;;;4215352;28;20406;-84
2022/06/24 04:35:16;;;;;;;3.72;2.50;;;19.60;79.50;;;;;;4216316;28;20036;-85
2022/06/24 04:37:17;;;;;;;4.03;2.88;;;19.60;79.90;;;;;;4216377;28;20136;-84
2022/06/24 04:39:18;;;;;;;8.13;3.53;;;19.70;80.20;;;;;;4216054;28;20109;-84
2022/06/24 04:41:18;;;;;;;4.88;2.67;;;19.70;80.10;;;;;;4215262;28;20111;-84
2022/06/24 04:43:19;;;;;;;4.63;2.97;;;19.70;79.70;;;;;;4215986;28;20044;-84
2022/06/24 04:45:20;;;;;;;3.47;2.55;;;19.70;79.80;;;;;;4216112;28;20036;-84
2022/06/24 04:47:20;;;;;;;4.30;2.70;;;19.60;79.80;;;;;;4216201;28;20504;-84
2022/06/24 04:49:21;;;;;;;8.98;3.60;;;19.70;79.90;;;;;;4198205;28;20044;-84
2022/06/24 04:51:22;;;;;;;4.43;2.90;;;19.60;79.80;;;;;;4215810;28;20040;-84
2022/06/24 04:53:23;;;;;;;4.70;3.00;;;19.70;79.60;;;;;;4197819;28;20041;-84
2022/06/24 04:55:24;;;;;;;4.78;2.83;;;19.70;79.70;;;;;;4215542;28;20055;-84
2022/06/24 04:57:25;;;;;;;6.03;3.35;;;19.80;79.50;;;;;;4215153;28;20056;-84
2022/06/24 04:59:26;;;;;;;7.57;3.22;;;19.80;79.50;;;;;;4214856;28;20101;-84
2022/06/24 05:01:29;;;;;;;8.80;3.47;;;19.80;79.40;;;;;;4200981;28;20079;-83
2022/06/24 05:03:30;;;;;;;3.65;2.70;;;19.60;79.50;;;;;;4214136;28;20044;-83
2022/06/24 05:05:31;;;;;;;4.47;2.67;;;19.90;79.60;;;;;;4214547;28;20420;-84
2022/06/24 05:07:32;;;;;;;6.55;2.65;;;20.10;79.90;;;;;;4215853;28;20043;-84
2022/06/24 05:09:33;;;;;;;8.50;2.55;;;20.10;80.30;;;;;;4215801;28;20040;-84
2022/06/24 05:11:34;;;;;;;7.00;2.97;;;20.20;80.30;;;;;;4197514;28;20516;-83
2022/06/24 05:13:35;;;;;;;7.00;3.35;;;20.30;80.50;;;;;;4219466;28;20051;-84
2022/06/24 05:15:36;;;;;;;3.50;2.60;;;20.30;80.20;;;;;;4230460;28;20039;-87
2022/06/24 05:17:36;;;;;;;4.78;3.00;;;20.40;80.20;;;;;;4231135;28;20126;-86
2022/06/24 05:19:37;;;;;;;6.68;2.90;;;20.40;79.90;;;;;;4230330;28;20047;-86
2022/06/24 05:21:39;;;;;;;6.80;2.80;;;20.50;79.90;;;;;;4232971;28;20488;-86
2022/06/24 05:23:39;;;;;;;4.97;2.83;;;20.50;79.70;;;;;;4230025;28;20535;-86
2022/06/24 05:25:40;;;;;;;8.05;4.03;;;20.50;80.00;;;;;;4232200;28;20048;-86
2022/06/24 05:27:41;;;;;;;7.20;3.03;;;20.60;79.70;;;;;;4225921;28;20545;-86
2022/06/24 05:29:42;;;;;;;6.93;2.92;;;20.60;79.30;;;;;;4208567;28;20075;-86
2022/06/24 05:31:45;;;;;;;7.28;3.20;;;20.70;79.50;;;;;;4197555;28;20047;-86
2022/06/24 05:33:45;;;;;;;4.57;3.15;;;20.70;79.10;;;;;;4219966;28;20047;-86
2022/06/24 05:35:46;;;;;;;5.50;2.85;;;20.70;78.60;;;;;;4213639;28;20077;-86
2022/06/24 05:37:49;;;;;;;8.55;3.30;;;20.80;78.40;;;;;;4215299;28;20504;-86
2022/06/24 05:39:50;;;;;;;9.10;3.15;;;20.80;78.00;;;;;;4214677;28;20040;-86
2022/06/24 05:41:51;;;;;;;5.60;3.05;;;20.90;77.90;;;;;;4214702;28;20123;-86
2022/06/24 05:43:52;;;;;;;10.85;3.20;;;21.00;77.80;;;;;;4214215;28;20044;-86
2022/06/24 05:45:52;;;;;;;4.43;3.10;;;21.00;77.50;;;;;;4231923;28;20518;-86
2022/06/24 05:47:53;;;;;;;8.60;2.97;;;21.10;77.40;;;;;;4230781;28;20046;-86
2022/06/24 05:49:54;;;;;;;7.90;3.08;;;21.00;77.00;;;;;;4232176;28;20039;-86
2022/06/24 05:51:55;;;;;;;4.32;2.60;;;21.10;77.20;;;;;;4231967;28;20559;-86
2022/06/24 05:56:14;;;;;;;;;;;21.30;76.90;;;;;;4215619;28;20048;-86
2022/06/24 05:58:16;;;;;;;9.57;2.65;;;21.50;78.60;;;;;;4214725;28;20002;-86
2022/06/24 06:00:20;;;;;;;5.20;2.95;;;21.60;77.00;;;;;;4215446;28;20503;-86
2022/06/24 06:02:22;;;;;;;7.07;4.10;;;21.70;77.70;;;;;;4214910;28;20047;-86
2022/06/24 06:04:23;;;;;;;6.18;3.85;;;21.60;79.00;;;;;;4213833;28;20044;-86
2022/06/24 06:06:27;;;;;;;8.68;4.75;;;21.60;80.60;;;;;;4213143;28;20145;-86
2022/06/24 06:08:30;;;;;;;7.60;4.80;;;21.80;81.80;;;;;;4196782;28;20238;-86
2022/06/24 06:10:31;;;;;;;12.93;5.20;;;21.60;82.70;;;;;;4215047;28;20047;-86
2022/06/24 06:12:34;;;;;;;8.68;5.25;;;21.60;84.10;;;;;;4229836;28;20035;-86
2022/06/24 06:14:39;;;;;;;8.38;4.85;;;21.40;87.20;;;;;;4231536;28;20054;-87
2022/06/24 06:16:39;;;;;;;11.88;5.93;;;21.40;88.90;;;;;;4230051;28;20059;-86
2022/06/24 06:18:41;;;;;;;9.63;5.05;;;21.30;90.00;;;;;;4230054;28;20489;-85
2022/06/24 06:20:42;;;;;;;11.98;4.93;;;21.20;90.90;;;;;;4230765;28;20043;-87
2022/06/24 06:22:43;;;;;;;14.60;4.32;;;21.20;91.90;;;;;;4223748;28;20079;-85
2022/06/24 06:24:44;;;;;;;11.18;3.50;;;21.20;95.60;;;;;;4220477;28;20048;-84
2022/06/24 06:26:48;;;;;;;12.93;3.65;;;21.00;96.40;;;;;;4218392;28;20126;-85
2022/06/24 06:28:49;;;;;;;15.27;3.90;;;20.90;97.50;;;;;;4224128;28;20040;-85
2022/06/24 06:30:49;;;;;;;14.57;5.30;;;20.80;97.40;;;;;;4225878;28;20047;-85
2022/06/24 06:32:52;;;;;;;16.52;4.70;;;20.80;98.10;;;;;;4222619;28;20066;-85
2022/06/24 06:34:52;;;;;;;11.93;4.70;;;20.80;98.60;;;;;;4231928;28;20050;-84
2022/06/24 06:36:53;;;;;;;10.73;4.10;;;20.80;99.00;;;;;;4222342;28;20032;-85
2022/06/24 06:38:54;;;;;;;12.63;3.80;;;20.80;99.60;;;;;;4214764;28;20048;-85
2022/06/24 06:40:55;;;;;;;10.70;3.85;;;20.80;99.90;;;;;;4213498;28;20439;-84
2022/06/24 06:42:56;;;;;;;10.43;3.67;;;20.80;99.90;;;;;;4212851;28;20051;-85
2022/06/24 06:44:57;;;;;;;9.48;4.10;;;20.80;99.90;;;;;;4213946;28;20039;-85
2022/06/24 06:46:58;;;;;;;11.40;5.47;;;20.80;99.90;;;;;;4219607;28;20508;-85
2022/06/24 06:48:59;;;;;;;16.88;5.82;;;20.80;99.90;;;;;;4229793;28;20044;-85
2022/06/24 06:51:00;;;;;;;12.43;7.15;;;20.80;99.90;;;;;;4230149;28;20043;-85
2022/06/24 06:53:02;;;;;;;11.60;7.38;;;20.80;99.90;;;;;;4230969;28;20043;-83
2022/06/24 06:55:03;;;;;;;13.95;8.27;;;20.80;99.90;;;;;;4230259;28;20035;-84
2022/06/24 06:57:04;;;;;;;13.80;7.88;;;20.80;99.90;;;;;;4231489;28;20039;-84
2022/06/24 06:59:05;;;;;;;14.10;7.70;;;20.70;99.90;;;;;;4228846;28;20523;-84
2022/06/24 07:01:05;;;;;;;21.52;9.00;;;20.80;99.90;;;;;;4230401;28;20056;-84
2022/06/24 07:03:06;;;;;;;12.35;7.25;;;20.80;99.90;;;;;;4232213;28;20044;-84
2022/06/24 07:05:07;;;;;;;13.63;7.63;;;20.80;99.90;;;;;;4223048;28;20460;-86
2022/06/24 07:07:10;;;;;;;14.30;7.03;;;20.90;99.90;;;;;;4214696;28;20060;-85
2022/06/24 07:09:11;;;;;;;14.38;6.88;;;20.80;99.90;;;;;;4214854;28;20491;-87
2022/06/24 07:11:12;;;;;;;13.98;6.43;;;20.80;99.90;;;;;;4213240;28;20080;-87
2022/06/24 07:13:13;;;;;;;12.57;6.47;;;20.80;99.90;;;;;;4218987;28;20044;-86
2022/06/24 07:15:16;;;;;;;13.77;6.28;;;20.80;99.90;;;;;;4225622;28;20035;-86
2022/06/24 07:17:17;;;;;;;10.32;5.88;;;20.80;99.90;;;;;;4228604;28;20047;-87
2022/06/24 07:19:18;;;;;;;10.05;5.93;;;20.70;99.90;;;;;;4222155;28;20518;-87
2022/06/24 07:21:19;;;;;;;14.10;5.90;;;20.50;99.90;;;;;;4219154;28;20040;-86
2022/06/24 07:23:19;;;;;;;11.65;5.70;;;20.30;99.90;;;;;;4215326;28;20028;-86
2022/06/24 07:25:20;;;;;;;16.30;6.20;;;20.20;99.90;;;;;;4229894;28;20063;-86
2022/06/24 07:27:21;;;;;;;10.30;5.85;;;20.10;99.90;;;;;;4223468;28;20056;-87
2022/06/24 07:29:22;;;;;;;13.43;6.93;;;20.10;99.90;;;;;;4208696;28;20132;-87
2022/06/24 07:31:23;;;;;;;12.43;5.70;;;20.10;99.90;;;;;;4231035;28;20123;-86
2022/06/24 07:33:24;;;;;;;12.70;4.93;;;20.10;99.90;;;;;;4224843;28;20039;-87
2022/06/24 07:35:26;;;;;;;11.93;5.03;;;20.10;99.90;;;;;;4212019;28;20055;-87
2022/06/24 07:37:29;;;;;;;13.63;5.00;;;20.20;99.90;;;;;;4221196;28;20047;-87
2022/06/24 07:39:30;;;;;;;12.18;5.15;;;20.20;99.90;;;;;;4222086;28;20076;-86
2022/06/24 07:41:31;;;;;;;14.23;4.75;;;20.30;99.90;;;;;;4221484;28;20115;-85
2022/06/24 07:43:36;;;;;;;9.50;4.72;;;20.30;99.90;;;;;;4231750;28;20408;-87
2022/06/24 07:45:36;;;;;;;13.10;4.63;;;20.30;99.90;;;;;;4232881;28;20480;-87
2022/06/24 07:47:37;;;;;;;12.35;5.22;;;20.30;99.90;;;;;;4232680;28;20054;-87
2022/06/24 07:49:38;;;;;;;14.05;5.53;;;20.30;99.90;;;;;;4232780;28;20040;-86
2022/06/24 07:51:39;;;;;;;10.00;5.25;;;20.40;99.90;;;;;;4203975;28;20052;-86
2022/06/24 07:53:41;;;;;;;14.55;4.65;;;20.40;99.90;;;;;;4216013;28;20099;-86
2022/06/24 07:58:09;;;;;;;11.50;4.55;;;20.40;99.90;;;;;;4191450;28;20056;-86
2022/06/24 08:00:10;;;;;;;12.18;5.35;;;20.40;99.90;;;;;;4215806;28;20538;-86
2022/06/24 08:02:10;;;;;;;13.32;4.88;;;20.30;99.90;;;;;;4214807;28;20051;-86
2022/06/24 08:04:11;;;;;;;11.70;4.43;;;20.30;99.90;;;;;;4223142;28;20048;-85
2022/06/24 08:06:12;;;;;;;9.15;4.78;;;20.30;99.90;;;;;;4231869;28;20404;-84
2022/06/24 08:08:14;;;;;;;12.98;5.10;;;20.30;99.90;;;;;;4229107;28;20435;-89
2022/06/24 08:10:15;;;;;;;12.30;4.93;;;20.30;99.90;;;;;;4230200;28;20079;-84
2022/06/24 08:12:16;;;;;;;11.15;4.22;;;20.30;99.90;;;;;;4220765;28;20043;-84
2022/06/24 08:14:17;;;;;;;10.00;5.20;;;20.10;99.90;;;;;;4214049;28;20511;-84
2022/06/24 08:16:18;;;;;;;9.50;4.25;;;20.30;99.90;;;;;;4214016;28;20032;-85
2022/06/24 08:18:20;;;;;;;9.23;4.75;;;20.40;99.90;;;;;;4218889;28;20092;-85
2022/06/24 08:20:21;;;;;;;11.50;4.57;;;20.50;99.90;;;;;;4207296;28;20036;-85
2022/06/24 08:22:22;;;;;;;9.88;4.03;;;20.50;99.90;;;;;;4218483;28;20040;-85
2022/06/24 08:24:22;;;;;;;6.70;3.53;;;20.60;99.90;;;;;;4213258;28;20454;-85
2022/06/24 08:26:24;;;;;;;8.23;3.03;;;20.60;99.90;;;;;;4196363;28;20099;-86
2022/06/24 08:28:24;;;;;;;10.30;3.95;;;20.70;99.90;;;;;;4224983;28;20481;-85
2022/06/24 08:30:26;;;;;;;7.80;3.17;;;20.70;99.90;;;;;;4214419;28;20121;-85
2022/06/24 08:32:26;;;;;;;4.78;2.67;;;20.80;99.90;;;;;;4220807;28;20515;-85
2022/06/24 08:34:27;;;;;;;9.18;2.78;;;20.90;99.90;;;;;;4231277;28;20047;-85
2022/06/24 08:36:28;;;;;;;7.05;2.80;;;20.90;99.90;;;;;;4214065;28;20050;-84
2022/06/24 08:38:29;;;;;;;7.35;2.88;;;20.90;99.90;;;;;;4230227;28;20036;-84
2022/06/24 08:40:31;;;;;;;4.72;1.90;;;20.90;99.90;;;;;;4230338;28;20051;-85
2022/06/24 08:42:32;;;;;;;11.90;3.55;;;20.90;99.90;;;;;;4231920;28;20091;-85
2022/06/24 08:44:35;;;;;;;9.57;3.15;;;21.00;99.90;;;;;;4207763;28;20411;-85
2022/06/24 08:46:39;;;;;;;5.38;3.38;;;21.00;99.90;;;;;;4217102;28;20044;-85
2022/06/24 08:48:40;;;;;;;7.07;3.00;;;21.00;99.90;;;;;;4199974;28;20443;-85
2022/06/24 08:50:41;;;;;;;8.68;3.53;;;21.10;99.90;;;;;;4216891;28;20047;-85
2022/06/24 08:52:47;;;;;;;9.02;4.03;;;21.10;99.90;;;;;;4216832;28;20044;-85
2022/06/24 08:54:49;;;;;;;7.63;3.28;;;21.10;99.90;;;;;;4217566;28;20044;-85
2022/06/24 08:56:53;;;;;;;10.15;3.53;;;21.10;99.90;;;;;;4216713;28;20044;-83
2022/06/24 08:58:54;;;;;;;5.05;2.70;;;21.20;99.90;;;;;;4216932;28;20048;-84
2022/06/24 09:00:55;;;;;;;9.77;2.90;;;21.20;99.90;;;;;;4199848;28;20048;-86
2022/06/24 09:02:56;;;;;;;4.65;3.35;;;21.30;99.90;;;;;;4199891;28;20140;-85
2022/06/24 09:05:00;;;;;;;8.30;2.75;;;21.40;99.90;;;;;;4218206;28;20048;-85
2022/06/24 09:07:01;;;;;;;6.78;2.42;;;21.30;99.90;;;;;;4217971;28;20043;-85
2022/06/24 09:09:02;;;;;;;5.63;2.67;;;21.30;99.90;;;;;;4199750;28;20123;-85
2022/06/24 09:11:07;;;;;;;11.43;3.55;;;21.20;99.90;;;;;;4216133;28;20150;-84
2022/06/24 09:13:18;;;;;;;4.97;2.40;;;21.10;99.90;;;;;;4217575;28;20048;-85
2022/06/24 09:15:19;;;;;;;5.43;2.60;;;21.20;99.90;;;;;;4199952;28;20053;-85
2022/06/24 09:17:28;;;;;;;5.97;2.67;;;21.20;99.90;;;;;;4216830;28;20047;-85
2022/06/24 09:19:31;;;;;;;;;;;21.20;99.90;;;;;;4218287;28;20036;-84
2022/06/24 09:21:41;;;;;;;5.70;2.75;;;21.20;99.90;;;;;;4226991;28;19920;-83
2022/06/24 09:23:56;;;;;;;6.03;2.72;;;21.20;99.90;;;;;;4233674;28;20053;-83
2022/06/24 09:26:00;;;;;;;7.25;2.47;;;21.20;99.90;;;;;;4234158;28;20057;-83
2022/06/24 09:28:01;;;;;;;5.85;2.45;;;21.20;99.90;;;;;;4234393;28;20334;-84
2022/06/24 09:30:02;;;;;;;7.78;2.53;;;21.10;99.90;;;;;;4234754;28;20077;-84
2022/06/24 09:32:04;;;;;;;7.53;2.88;;;21.10;99.90;;;;;;4232719;28;20051;-84
2022/06/24 09:34:16;;;;;;;4.68;2.80;;;21.10;99.90;;;;;;4233321;28;20043;-85
2022/06/24 09:36:24;;;;;;;6.38;2.78;;;21.20;99.90;;;;;;4233750;28;20511;-85
2022/06/24 09:38:25;;;;;;;9.23;2.45;;;21.10;99.90;;;;;;4216934;28;20101;-85
2022/06/24 09:40:28;;;;;;;6.22;2.80;;;21.10;99.90;;;;;;4233064;28;20039;-85
2022/06/24 09:42:29;;;;;;;4.57;2.70;;;21.10;99.90;;;;;;4234733;28;20128;-85
2022/06/24 09:44:44;;;;;;;5.88;2.55;;;21.10;99.90;;;;;;4234764;28;20048;-84
2022/06/24 09:46:46;;;;;;;5.28;2.90;;;21.00;99.90;;;;;;4233783;28;20040;-84
2022/06/24 09:48:47;;;;;;;5.60;2.47;;;21.00;99.90;;;;;;4234325;28;20545;-85
2022/06/24 09:50:47;;;;;;;7.38;2.88;;;20.90;99.90;;;;;;4234033;28;20043;-85
2022/06/24 09:52:50;;;;;;;6.93;3.13;;;20.90;99.90;;;;;;4232771;28;20048;-85
2022/06/24 09:54:51;;;;;;;9.25;3.05;;;20.90;99.90;;;;;;4233033;28;20051;-85
2022/06/24 09:56:53;;;;;;;5.45;2.75;;;20.90;99.90;;;;;;4215867;28;20044;-85
2022/06/24 10:01:20;;;;;;;8.25;3.20;;;20.90;99.90;;;;;;4232773;28;20051;-87
2022/06/24 10:03:21;;;;;;;10.60;4.82;;;20.90;99.90;;;;;;4232506;28;20569;-84
2022/06/24 10:05:26;;;;;;;6.25;3.22;;;20.80;99.90;;;;;;4234212;28;20488;-84
2022/06/24 10:07:33;;;;;;;9.50;3.67;;;20.80;99.90;;;;;;4233896;28;20044;-86
2022/06/24 10:09:35;;;;;;;7.30;3.28;;;20.80;99.90;;;;;;4234114;28;20054;-87
2022/06/24 10:11:48;;;;;;;6.40;3.58;;;20.80;99.90;;;;;;4233903;28;20071;-85
2022/06/24 10:13:49;;;;;;;5.40;2.60;;;20.90;99.90;;;;;;4233990;28;20122;-86
2022/06/24 10:15:52;;;;;;;8.07;3.22;;;20.90;99.90;;;;;;4233061;28;20511;-85
2022/06/24 10:17:54;;;;;;;11.55;3.35;;;21.00;99.90;;;;;;4232882;28;20407;-87
2022/06/24 10:19:56;;;;;;;6.95;3.28;;;21.00;99.90;;;;;;4227533;28;20052;-86
2022/06/24 10:21:56;;;;;;;6.00;3.25;;;21.00;99.90;;;;;;4219660;28;20082;-86
2022/06/24 10:23:57;;;;;;;7.10;3.45;;;20.90;99.90;;;;;;4226808;28;20054;-87
2022/06/24 10:25:58;;;;;;;7.72;3.55;;;21.00;99.90;;;;;;4228555;28;20048;-86
2022/06/24 10:28:00;;;;;;;5.97;3.08;;;20.90;99.90;;;;;;4219874;28;20052;-87
2022/06/24 10:30:03;;;;;;;6.10;2.95;;;20.90;99.90;;;;;;4228123;28;20043;-86
2022/06/24 10:32:05;;;;;;;5.13;2.60;;;20.80;99.90;;;;;;4227305;28;20132;-86
2022/06/24 10:34:06;;;;;;;6.25;2.78;;;20.60;99.90;;;;;;4228721;28;20070;-85
2022/06/24 10:36:07;;;;;;;6.75;2.80;;;20.50;99.90;;;;;;4220060;28;20047;-85
2022/06/24 10:38:08;;;;;;;7.20;2.97;;;20.30;99.90;;;;;;4220957;28;20047;-86
2022/06/24 10:40:23;;;;;;;6.32;2.72;;;20.30;99.90;;;;;;4228557;28;20035;-86
2022/06/24 10:42:24;;;;;;;7.70;3.00;;;20.20;99.90;;;;;;4219503;28;20077;-85
2022/06/24 10:44:29;;;;;;;4.68;2.50;;;20.20;99.90;;;;;;4218212;28;20055;-85
2022/06/24 10:46:30;;;;;;;5.50;2.83;;;20.20;99.90;;;;;;4229153;28;20115;-85